Nearby METAR Reports

 

KLRU - Las Cruces Intl, New Mexico, USA
Distance from station: SW 17mi, 27km
Updated: Fri, 01-Mar-2024 7:55am MST
Clear
Clear
 Wind from calm
Wind: Calm
Temperature: 48°F , 9°C
Dew Point: 41°F , 5°C
Humidity: 76%
Barometer: 30.17 inHg , 1021.7 hPa
Clouds: Clear
Visibility: 10 miles , 16 km
2024/03/01 14:55 KLRU 011455Z AUTO 00000KT 10SM CLR 09/05 A3017 RMK AO2 T00930047
KELP - El Paso Intl, Texas, USA
Distance from station: SSE 44mi, 71km
Updated: Fri, 01-Mar-2024 7:51am MST
Clear
Clear
 Wind from S
Wind: S 3 mph , 6 km/h
Temperature: 52°F , 11°C
Dew Point: 37°F , 3°C
Humidity: 58%
Barometer: 30.15 inHg , 1021 hPa
Clouds: Clear
Visibility: 10 miles , 16 km
2024/03/01 14:51 KELP 011451Z 19003KT 10SM CLR 11/03 A3015 RMK AO2 SLP176 T01060033 53014
 
KABQ - Albuquerque Intl, New Mexico, USA
Distance from station: N 192mi, 309km
Updated: Fri, 01-Mar-2024 7:52am MST
Few Clouds
Few Clouds
 Wind from S
Wind: S 6 mph , 9 km/h
Temperature: 39°F , 4°C
Wind Chill: 35°F , 2°C
Dew Point: 34°F , 1°C
Humidity: 81%
Barometer: 30.15 inHg , 1021 hPa
Clouds: Few Clouds
Visibility: 10 miles , 16 km
Cloud details: Few Clouds 22000 ft
Few Clouds 25000 ft
2024/03/01 14:52 KABQ 011452Z 19005KT 10SM FEW220 FEW250 04/01 A3015 RMK AO2 SLP193 HZ N-E-S T00390006 53012
KHMN - Holloman AFB, New Mexico, USA
Distance from station: NE 47mi, 75km
Updated: Fri, 01-Mar-2024 7:55am MST
Clear
Clear
 Wind from calm
Wind: Calm
Temperature: 41°F , 5°C
Dew Point: 34°F , 1°C
Humidity: 76%
Barometer: 30.18 inHg , 1022 hPa
Clouds: Clear
Visibility: 10 miles , 16 km
2024/03/01 14:55 KHMN 011455Z AUTO 00000KT 10SM CLR 05/01 A3018 RMK AO2 SLP204 T00490012 52014 $
 
KBIF - Fort Bliss, Texas, USA
Distance from station: SSE 42mi, 68km
Updated: Fri, 01-Mar-2024 7:55am MST
Clear
Clear
 Wind from calm
Wind: Calm
Temperature: 48°F , 9°C
Dew Point: 39°F , 4°C
Humidity: 71%
Barometer: 30.20 inHg , 1022.7 hPa
Clouds: Clear
Visibility: 7 miles , 11 km
2024/03/01 14:55 KBIF 011455Z 00000KT 7SM CLR 09/04 A3020 RMK AO2A SLP195 ALSTG/SLP ESTMD WND DATA ESTMD T00810035 52014$
K0A0 - Spaceport Americ, New Mexico, USA
Distance from station: NNW 43mi, 70km
Updated: Fri, 01-Mar-2024 7:55am MST
Clear
Clear
 Wind from calm
Wind: Calm
Temperature: 39°F , 4°C
Dew Point: 39°F , 4°C
Humidity: 100%
Barometer: 30.17 inHg , 1021.7 hPa
Clouds: Clear
Visibility: 10 miles , 16 km
2024/03/01 14:55 K0A0 011455Z AUTO 00000KT 10SM CLR 04/04 A3017 RMK AO2
 
KALM - Alamogordo White, New Mexico, USA
Distance from station: NE 51mi, 81km
Updated: Fri, 01-Mar-2024 7:55am MST
Clear
Clear
 Wind from calm
Wind: Calm
Temperature: 43°F , 6°C
Dew Point: 37°F , 3°C
Humidity: 81%
Barometer: 30.17 inHg , 1021.7 hPa
Clouds: Clear
Visibility: 10 miles , 16 km
2024/03/01 14:55 KALM 011455Z AUTO 00000KT 10SM CLR 06/03 A3017 RMK AO2
MMCS - Ciudad Juarez In, Mexico
Distance from station: SSE 56mi, 91km
Updated: Fri, 01-Mar-2024 7:40am MST
Clear
Clear
 Wind from S
Wind: S 9 mph , 15 km/h
Temperature: 48°F , 9°C
Wind Chill: 44°F , 7°C
Dew Point: 39°F , 4°C
Humidity: 71%
Barometer: 30.18 inHg , 1022 hPa
Clouds: Clear
Visibility: 10 miles , 16 km
2024/03/01 14:40 MMCS 011440Z 18008KT 10SM SKC 09/04 A3018 RMK SLP177 5//// 900
 
KDMN - Deming, New Mexico, USA
Distance from station: W 61mi, 98km
Updated: Fri, 01-Mar-2024 7:53am MST
Clear
Clear
 Wind from WSW
Wind: WSW 9 mph , 15 km/h
Temperature: 45°F , 7°C
Wind Chill: 40°F , 4°C
Dew Point: 36°F , 2°C
Humidity: 71%
Barometer: 30.18 inHg , 1022 hPa
Clouds: Clear
Visibility: 10 miles , 16 km
2024/03/01 14:53 KDMN 011453Z AUTO 25008KT 10SM CLR 07/02 A3018 RMK AO2 SLP192 T00720022 51013
KDNA - Santa Teresa, New Mexico, USA
Distance from station: S 36mi, 58km
Updated: Fri, 01-Mar-2024 7:55am MST
Clear
Clear
 Wind from SSE
Wind: SSE 5 mph , 7 km/h
Temperature: 45°F , 7°C
Wind Chill: 42°F , 6°C
Dew Point: 37°F , 3°C
Humidity: 76%
Barometer: 30.18 inHg , 1022 hPa
Clouds: Clear
Visibility: 10 miles , 16 km
2024/03/01 14:55 KDNA 011455Z AUTO 16004KT 10SM CLR 07/03 A3018 RMK AO2
 
KTCS - Truth Or Conseq., New Mexico, USA
Distance from station: NNW 67mi, 107km
Updated: Fri, 01-Mar-2024 7:53am MST
Clear
Clear
 Wind from NW
Wind: NW 9 mph , 15 km/h
Temperature: 46°F , 8°C
Wind Chill: 41°F , 5°C
Dew Point: 34°F , 1°C
Humidity: 62%
Barometer: 30.15 inHg , 1021 hPa
Clouds: Clear
Visibility: 10 miles , 16 km
2024/03/01 14:53 KTCS 011453Z AUTO 31008KT 10SM CLR 08/01 A3015 RMK AO2 SLP175 T00830011 53009
KSVC - Silver City, New Mexico, USA
Distance from station: W 87mi, 140km
Updated: Fri, 01-Mar-2024 7:55am MST
Clear
Clear
 Wind from NW
Wind: NW 14 mph , 22 km/h
Temperature: 41°F , 5°C
Wind Chill: 33°F , 1°C
Dew Point: 34°F , 1°C
Humidity: 76%
Barometer: 30.18 inHg , 1022 hPa
Clouds: Clear
Visibility: 10 miles , 16 km
2024/03/01 14:55 KSVC 011455Z AUTO 32012KT 10SM CLR 05/01 A3018 RMK AO2 T00490006
 
KSRR - Sierra B/Ruidoso, New Mexico, USA
Distance from station: NE 100mi, 161km
Updated: Fri, 01-Mar-2024 7:55am MST
Clear
Clear
 Wind from NNE
Wind: NNE 5 mph , 7 km/h
Temperature: 36°F , 2°C
Wind Chill: 32°F , 0°C
Dew Point: 32°F , 0°C
Humidity: 87%
Barometer: 30.15 inHg , 1021 hPa
Clouds: Clear
Visibility: 10 miles , 16 km
2024/03/01 14:55 KSRR 011455Z AUTO 03004KT 10SM CLR 02/00 A3015 RMK AO2
KONM - Socorro, New Mexico, USA
Distance from station: N 112mi, 181km
Updated: Fri, 01-Mar-2024 7:55am MST
Clear
Clear
 Wind from calm
Wind: Calm
Temperature: 43°F , 6°C
Dew Point: 39°F , 4°C
Humidity: 87%
Barometer: 30.16 inHg , 1021.3 hPa
Clouds: Clear
Visibility: 10 miles , 16 km
2024/03/01 14:55 KONM 011455Z AUTO 00000KT 10SM CLR 06/04 A3016 RMK AO2 T00550036
 
KGDP - Guadalupe Pass, Texas, USA
Distance from station: ESE 116mi, 187km
Updated: Sun, 10-Dec-2023 5:51pm MST
NOT Current

 Wind from SW
Wind: SW 31 mph , 50 km/h
Temperature: 41°F , 5°C
Wind Chill: 30°F , -1°C
Dew Point: 9°F , -13°C
Humidity: 26%
Barometer: 30.20 inHg , 1022.7 hPa
Visibility: 10 miles , 16 km
2023/12/11 00:51 KGDP 110051Z AUTO 23027KT 10SM 05/M13 A3020 RMK AO2 PK WND 25038/0000 SLP229 T00501133 $
KATS - Artesia, New Mexico, USA
Distance from station: ENE 133mi, 213km
Updated: Fri, 01-Mar-2024 7:55am MST
Clear
Clear
 Wind from WSW
Wind: WSW 14 mph , 22 km/h
Temperature: 52°F , 11°C
Dew Point: 41°F , 5°C
Humidity: 67%
Barometer: 30.08 inHg , 1018.6 hPa
Clouds: Clear
Visibility: 10 miles , 16 km
2024/03/01 14:55 KATS 011455Z AUTO 25012KT 10SM CLR 11/05 A3008 RMK AO2
 
KROW - Roswell, New Mexico, USA
Distance from station: ENE 141mi, 227km
Updated: Fri, 01-Mar-2024 7:51am MST
Mist, Clear
Mist, Clear
 Wind from N
Wind: N 6 mph , 9 km/h
Temperature: 34°F , 1°C
Wind Chill: 29°F , -2°C
Dew Point: 30°F , -1°C
Humidity: 87%
Barometer: 30.07 inHg , 1018.3 hPa
Summary: Mist
Clouds: Clear
Visibility: 5 miles , 8 km
2024/03/01 14:51 KROW 011451Z AUTO 01005KT 5SM BR CLR 01/M01 A3007 RMK AO2 SLP178 I3000 T00061006 51014
KCNM - Carlsbad, New Mexico, USA
Distance from station: E 142mi, 229km
Updated: Fri, 01-Mar-2024 7:53am MST
Clear
Clear
 Wind from SE
Wind: SE 5 mph , 7 km/h
Temperature: 45°F , 7°C
Wind Chill: 42°F , 6°C
Dew Point: 41°F , 5°C
Humidity: 87%
Barometer: 30.08 inHg , 1018.6 hPa
Clouds: Clear
Visibility: 7 miles , 11 km
2024/03/01 14:53 KCNM 011453Z AUTO 13004KT 7SM CLR 07/05 A3008 RMK AO2 SLP170 T00720050 53016
 
KVHN - Van Horn, Texas, USA
Distance from station: SE 145mi, 233km
Updated: Fri, 01-Mar-2024 7:55am MST
Clear
Clear
 Wind from S
Wind: S 7 mph , 11 km/h
Temperature: 48°F , 9°C
Wind Chill: 45°F , 7°C
Dew Point: 41°F , 5°C
Humidity: 76%
Barometer: 30.21 inHg , 1023 hPa
Clouds: Clear
Visibility: 10 miles , 16 km
2024/03/01 14:55 KVHN 011455Z AUTO 19006KT 10SM CLR 09/05 A3021 RMK AO2 T00910047
KBRG - Belen, New Mexico, USA
Distance from station: N 156mi, 250km
Updated: Fri, 01-Mar-2024 7:55am MST
Clear
Clear
 Wind from SW
Wind: SW 6 mph , 9 km/h
Temperature: 45°F , 7°C
Wind Chill: 42°F , 6°C
Dew Point: 32°F , 0°C
Humidity: 61%
Barometer: 30.16 inHg , 1021.3 hPa
Clouds: Clear
Visibility: 10 miles , 16 km
2024/03/01 14:55 KBRG 011455Z AUTO 22005KT 10SM CLR 07/00 A3016 RMK AO2 T00650003